Relevés horaires St-Hubert (Belgique)


Relevés horaires à St-Hubert - Mardi 17 Avr. 2018
Heure UTC1 Température [°C] Vent [km/h] Hum. [%] Pres.4 [hPa] Visi. [Km] Nébu. [octa] Préc.5 [mm] Cond.
2m. Res. Ros. Dir.2 Vit. Moy. Raf.3
23:00 10.3 10.3 3.7 SE 3.7 3.7 3.7 64 1029.8(1.0/3h) 40 0/8 -- --
22:00 11.4 11.4 3.8 NNO 0.0 1.9 1.9 59 1029.2(1.3/3h) 45 0/8 -- --
21:00 11.0 11.0 2.9 S 1.9 3.7 7.4 57 1028.9(1.3/3h) 40 0/8 -- --
20:00 11.8 11.8 2.5 S 3.7 3.7 5.6 53 1028.4(1.6/3h) 45 0/8 -- --
19:00 12.2 12.2 5.0 S 1.9 3.7 7.4 61 1027.7(1.4/3h) 40 0/8 -- --
18:00 15.9 15.9 5.1 SO 3.7 7.4 14.8 49 1026.3(1.0/3h) 45 0/8 0/12h
--
17:00 17.0 17.0 4.9 S 3.7 5.6 9.3 45 1025.4(0.8/3h) 35 0/8 -- --
16:00 17.4 17.4 3.8 S 5.6 5.6 11.1 40 1025(0.2/3h) 35 0/8 -- --
15:00 18.0 18.0 4.4 SSO 5.6 7.4 14.8 41 1024.8(0.3/3h) 30 0/8 -- --
14:00 17.2 17.2 4.7 SSO 5.6 7.4 14.8 44 1024.6(0.0/3h) 30 0/8 -- --
13:00 16.4 16.4 5.2 S 5.6 5.6 13.0 47 1025(0.0/3h) 29 0/8 -- --
12:00 15.3 15.3 4.7 SSE 5.6 5.6 13.0 49 1025(0.3/3h) 30 0/8 0/6h
--
11:00 14.7 14.7 5.5 S 5.6 5.6 11.1 54 1025.1(0.4/3h) 30 0/8 -- --
10:00 13.5 13.5 3.7 SSO 5.6 5.6 11.1 51 1025.7(1.2/3h) 30 0/8 -- --
09:00 12.6 12.6 4.9 SO 5.6 5.6 11.1 59 1025.4(1.5/3h) 21 0/8 -- --
08:00 11.8 11.8 6.0 S 3.7 3.7 7.4 68 1025.4(2.3/3h) 27 0/8 -- --
07:00 11.0 11.0 5.6 SSE 3.7 3.7 5.6 69 1025(2.0/3h) 22 0/8 -- --
06:00 9.1 9.1 4.8 ESE 3.7 5.6 9.3 74 1024.6(1.3/3h) 24 0/8 0/12h
--
05:00 7.5 6.7 4.1 ESE 5.6 5.6 7.4 79 1024(0.6/3h) 23 0/8 -- --
04:00 6.9 6 3.7 ESE 5.6 5.6 7.4 80 1023.8(0.5/3h) 24 0/8 -- --
03:00 6.3 6.3 3.6 ESE 3.7 5.6 5.6 83 1024(0.7/3h) 25 0/8 -- --
02:00 7.5 6.7 5.0 E 5.6 5.6 5.6 84 1023.3(0.7/3h) 26 0/8 -- --
01:00 6.7 6.7 4.6 ENE 3.7 5.6 5.6 86 1023.4(1.1/3h) 21 0/8 -- --
00:00 5.9 5.9 4.0 ENE 3.7 7.4 11.1 88 1023.3(1.1/3h) 20 0/8 0/6h
0/24h
--

1 Coordinated Universal Time. Actuellement il est 18:00 locale et 16:00 UTC.

2 Le vent souffle depuis la direction indiquée vers la direction oposée.

3 Les rafales max. sont disponible 40 min après l'heure du relevé.

4 Pour les stations d'altitude (plus de 600m) le géopotentiel du niveau le plus proche de la pression obligatoire est indiqué.

5 Les stations disposant d'un diffuseur peuvent indiquer "trace". Cela signifie que des précipitations ont touchés le sol mais que la quantité est inférieure à 0.1 mm.

Récapitulatif de la journée
Température [°C] Vent [km/h] Ensoleillement4 [h] Precipitations totale5 [mm] Pression [Hpa]
Min1 Max.2 Moy.3 Max. Min Max.
5.1 18.0 5.3 14.8 0 h 0 min 0 1023.3 1029.8

1 Température minimale relevée entre 18:00 UTC la veille et 18:00 UTC le jour donné.

2 Température maximale relevée entre 06:00 UTC le jour donné et 06:00 UTC le lendemain.

3 Vent moyen de la journée basé sur les relevés horaires.

4 Ensoleillement en heures relevé entre 06:00 UTC la veille et 06:00 UTC le jour donné.

5 Précipitations totales tombées entre 06:00 UTC la jour donné et 06:00 UTC le lendemain.

Graphiques horaires